createdAt,value
2022-10-04T00:00:04.853Z,3
2022-10-04T00:05:16.974Z,3
2022-10-04T00:10:29.063Z,3
2022-10-04T00:15:41.385Z,3
2022-10-04T00:20:53.105Z,3
2022-10-04T00:26:05.316Z,4
2022-10-04T00:31:17.763Z,3
2022-10-04T00:36:29.871Z,3
2022-10-04T00:41:42.860Z,2
2022-10-04T00:46:54.949Z,2
2022-10-04T00:52:06.747Z,2
2022-10-04T00:57:18.912Z,2
2022-10-04T01:02:31.035Z,3
2022-10-04T01:07:42.965Z,3
2022-10-04T01:12:54.861Z,3
2022-10-04T01:18:10.332Z,3
2022-10-04T01:23:23.656Z,4
2022-10-04T01:28:36.211Z,3
2022-10-04T01:33:48.201Z,2
2022-10-04T01:39:00.025Z,2
2022-10-04T01:44:11.848Z,2
2022-10-04T01:49:23.863Z,2
2022-10-04T01:54:35.584Z,3
2022-10-04T01:59:47.543Z,2
2022-10-04T02:04:59.947Z,2
2022-10-04T02:10:11.810Z,3
2022-10-04T02:15:23.699Z,2
2022-10-04T02:20:35.752Z,2
2022-10-04T02:25:47.610Z,3
2022-10-04T02:31:02.068Z,2
2022-10-04T02:36:13.815Z,2
2022-10-04T02:41:25.598Z,2
2022-10-04T02:46:38.123Z,2
2022-10-04T02:51:50.330Z,2
2022-10-04T02:57:02.069Z,3
2022-10-04T03:02:14.301Z,3
2022-10-04T03:07:26.385Z,2
2022-10-04T03:12:38.195Z,2
2022-10-04T03:17:50.049Z,2
2022-10-04T03:23:02.072Z,2
2022-10-04T03:28:14.140Z,4
2022-10-04T03:33:26.108Z,3
2022-10-04T03:38:38.321Z,2
2022-10-04T03:43:50.126Z,2
2022-10-04T03:49:01.849Z,2
2022-10-04T03:54:13.851Z,2
2022-10-04T03:59:25.999Z,2
2022-10-04T04:04:37.859Z,2
2022-10-04T04:09:49.664Z,2
2022-10-04T04:15:01.599Z,2
2022-10-04T04:20:13.266Z,2
2022-10-04T04:25:25.384Z,3
2022-10-04T04:30:37.340Z,3
2022-10-04T04:35:49.280Z,3
2022-10-04T04:41:01.375Z,3
2022-10-04T04:46:29.069Z,3
2022-10-04T04:51:37.811Z,3
2022-10-04T04:56:49.849Z,3
2022-10-04T05:02:01.847Z,3
2022-10-04T05:07:13.921Z,3
2022-10-04T05:12:25.816Z,3
2022-10-04T05:17:37.733Z,3
2022-10-04T05:22:49.630Z,3
2022-10-04T05:28:04.927Z,3
2022-10-04T05:33:16.131Z,3
2022-10-04T05:38:27.991Z,3
2022-10-04T05:43:40.049Z,3
2022-10-04T05:48:51.990Z,3
2022-10-04T05:54:03.961Z,3
2022-10-04T05:59:16.156Z,3
2022-10-04T06:04:28.200Z,3
2022-10-04T06:09:40.040Z,3
2022-10-04T06:14:52.026Z,3
2022-10-04T06:20:03.934Z,3
2022-10-04T06:25:16.906Z,2
2022-10-04T06:30:29.027Z,2
2022-10-04T06:35:41.242Z,2
2022-10-04T06:40:53.224Z,1
2022-10-04T06:46:05.615Z,1
2022-10-04T06:51:17.790Z,1
2022-10-04T06:56:29.974Z,1
2022-10-04T07:01:44.190Z,1
2022-10-04T07:06:56.071Z,1
2022-10-04T07:12:08.160Z,1
2022-10-04T07:17:20.233Z,1
2022-10-04T07:22:32.223Z,1
2022-10-04T07:27:44.331Z,1
2022-10-04T07:32:56.714Z,2
2022-10-04T07:38:08.989Z,1
2022-10-04T07:43:20.966Z,0
2022-10-04T07:48:33.184Z,0
2022-10-04T07:53:45.253Z,0
2022-10-04T07:58:57.412Z,0
2022-10-04T08:04:09.649Z,0
2022-10-04T08:09:21.749Z,0
2022-10-04T08:14:33.794Z,0
2022-10-04T08:19:45.944Z,1
2022-10-04T08:24:58.111Z,1
2022-10-04T08:30:10.025Z,2
2022-10-04T08:35:22.203Z,2
2022-10-04T08:40:34.443Z,2
2022-10-04T08:45:46.615Z,3
2022-10-04T08:50:58.763Z,4
2022-10-04T08:56:10.774Z,5
2022-10-04T09:01:23.118Z,5
2022-10-04T09:06:35.231Z,6
2022-10-04T09:11:47.304Z,7
2022-10-04T09:16:59.441Z,9
2022-10-04T09:22:11.696Z,11
2022-10-04T09:27:56.002Z,12
2022-10-04T09:33:03.798Z,12
2022-10-04T09:38:16.212Z,15
2022-10-04T09:43:28.376Z,17
2022-10-04T09:48:40.409Z,15
2022-10-04T09:53:52.708Z,18
2022-10-04T09:59:04.941Z,20
2022-10-04T10:04:17.260Z,22
2022-10-04T10:09:29.506Z,22
2022-10-04T10:14:41.779Z,24
2022-10-04T10:19:54.191Z,26
2022-10-04T10:25:06.707Z,26
2022-10-04T10:30:18.951Z,26
2022-10-04T10:35:31.249Z,27
2022-10-04T10:40:43.830Z,29
2022-10-04T10:45:56.175Z,31
2022-10-04T10:51:08.396Z,32
2022-10-04T10:56:20.785Z,33
2022-10-04T11:01:33.644Z,34
2022-10-04T11:12:17.732Z,37
2022-10-04T11:17:32.917Z,80
2022-10-04T11:22:47.986Z,70
2022-10-04T11:28:02.546Z,66
2022-10-04T11:33:16.066Z,62
2022-10-04T11:38:29.627Z,62
2022-10-04T11:43:42.846Z,57
2022-10-04T11:54:07.056Z,56
2022-10-04T11:59:20.350Z,53
2022-10-04T12:14:54.729Z,56
2022-10-04T12:25:18.085Z,50
2022-10-04T12:35:42.241Z,51
2022-10-04T12:40:55.177Z,50
2022-10-04T12:56:27.285Z,51
2022-10-04T13:06:51.196Z,53
2022-10-04T13:12:02.677Z,54
2022-10-04T13:22:58.522Z,53
2022-10-04T13:33:16.552Z,54
2022-10-04T13:59:09.916Z,64
2022-10-04T14:04:22.333Z,65
2022-10-04T14:14:44.915Z,64
2022-10-04T14:25:07.676Z,67
2022-10-04T14:30:20.104Z,65
2022-10-04T14:35:32.342Z,65
2022-10-04T14:40:44.562Z,67
2022-10-04T14:45:57.477Z,70
2022-10-04T14:51:09.781Z,70
2022-10-04T14:56:22.291Z,74
2022-10-04T15:01:34.841Z,74
2022-10-04T15:06:49.468Z,75
2022-10-04T15:13:12.577Z,76
2022-10-04T15:18:18.617Z,75
2022-10-04T15:23:30.349Z,77
2022-10-04T15:28:42.798Z,77
2022-10-04T15:33:55.137Z,79
2022-10-04T15:39:07.488Z,84
2022-10-04T15:44:20.120Z,94
2022-10-04T15:49:32.411Z,96
2022-10-04T15:54:44.788Z,95
2022-10-04T15:59:57.200Z,93
2022-10-04T16:05:09.634Z,90
2022-10-04T16:10:21.676Z,85
2022-10-04T16:15:34.533Z,84
2022-10-04T16:20:46.713Z,81
2022-10-04T16:25:58.883Z,78
2022-10-04T16:36:21.293Z,73
2022-10-04T16:41:33.545Z,68
2022-10-04T16:46:48.173Z,68
2022-10-04T16:52:00.210Z,65
2022-10-04T16:57:12.542Z,65
2022-10-04T17:02:24.541Z,67
2022-10-04T17:07:36.551Z,65
2022-10-04T17:12:48.587Z,60
2022-10-04T17:18:00.888Z,61
2022-10-04T17:23:13.347Z,60
2022-10-04T17:28:25.564Z,57
2022-10-04T17:33:37.665Z,55
2022-10-04T17:38:50.248Z,55
2022-10-04T17:44:02.425Z,52
2022-10-04T17:49:14.459Z,52
2022-10-04T17:54:27.052Z,43
2022-10-04T17:59:38.922Z,40
2022-10-04T18:04:51.191Z,38
2022-10-04T18:10:03.365Z,38
2022-10-04T18:15:15.463Z,33
2022-10-04T18:20:28.727Z,32
2022-10-04T18:25:40.869Z,32
2022-10-04T18:30:52.895Z,21
2022-10-04T18:36:05.159Z,20
2022-10-04T18:41:17.226Z,17
2022-10-04T18:46:29.737Z,17
2022-10-04T18:51:41.859Z,17
2022-10-04T18:56:54.067Z,17
2022-10-04T19:02:06.586Z,17
2022-10-04T19:07:18.870Z,15
2022-10-04T19:12:31.185Z,14
2022-10-04T19:17:43.405Z,11
2022-10-04T19:22:55.730Z,11
2022-10-04T19:28:08.764Z,10
2022-10-04T19:33:28.887Z,10
2022-10-04T19:38:39.753Z,9
2022-10-04T19:43:51.979Z,9
2022-10-04T19:49:04.099Z,8
2022-10-04T19:54:17.763Z,8
2022-10-04T19:59:29.418Z,7
2022-10-04T20:04:41.629Z,7
2022-10-04T20:09:53.440Z,7
2022-10-04T20:15:05.560Z,6
2022-10-04T20:20:17.610Z,6
2022-10-04T20:25:29.580Z,5
2022-10-04T20:30:42.105Z,5
2022-10-04T20:35:53.978Z,5
2022-10-04T20:41:05.928Z,5
2022-10-04T20:46:18.398Z,5
2022-10-04T20:51:30.260Z,4
2022-10-04T20:56:42.290Z,4
2022-10-04T21:01:54.882Z,4
2022-10-04T21:07:06.816Z,4
2022-10-04T21:12:18.677Z,4
2022-10-04T21:17:30.802Z,4
2022-10-04T21:22:42.572Z,4
2022-10-04T21:27:54.652Z,4
2022-10-04T21:33:07.008Z,4
2022-10-04T21:38:20.539Z,4
2022-10-04T21:43:31.992Z,4
2022-10-04T21:48:44.055Z,4
2022-10-04T21:53:55.823Z,4
2022-10-04T21:59:07.682Z,4
2022-10-04T22:04:19.827Z,4
2022-10-04T22:09:31.820Z,3
2022-10-04T22:14:43.673Z,3
2022-10-04T22:19:57.684Z,3
2022-10-04T22:25:09.026Z,3
2022-10-04T22:30:20.816Z,3
2022-10-04T22:35:32.820Z,4
2022-10-04T22:40:44.828Z,3
2022-10-04T22:45:56.897Z,3
2022-10-04T22:51:08.937Z,3
2022-10-04T22:56:20.767Z,3
2022-10-04T23:01:32.696Z,3
2022-10-04T23:06:46.218Z,3
2022-10-04T23:11:58.218Z,3
2022-10-04T23:17:10.108Z,3
2022-10-04T23:22:22.073Z,3
2022-10-04T23:27:34.239Z,3
2022-10-04T23:32:47.020Z,3
2022-10-04T23:37:59.912Z,3
2022-10-04T23:43:11.373Z,3
2022-10-04T23:48:23.479Z,3
2022-10-04T23:58:47.596Z,3
